sensor_id;sensor_type;location;lat;lon;timestamp;temperature;humidity
13694;DHT22;6919;52.344;14.518;2022-11-20T00:01:33;-0.50;99.90
13694;DHT22;6919;52.344;14.518;2022-11-20T00:04:01;-0.50;99.90
13694;DHT22;6919;52.344;14.518;2022-11-20T00:06:31;-0.50;99.90
13694;DHT22;6919;52.344;14.518;2022-11-20T00:09:00;-0.40;99.90
13694;DHT22;6919;52.344;14.518;2022-11-20T00:11:30;-0.40;99.90
13694;DHT22;6919;52.344;14.518;2022-11-20T00:14:00;-0.40;99.90
13694;DHT22;6919;52.344;14.518;2022-11-20T00:16:31;-0.40;99.90
13694;DHT22;6919;52.344;14.518;2022-11-20T00:19:01;-0.30;99.90
13694;DHT22;6919;52.344;14.518;2022-11-20T00:21:31;-0.40;99.90
13694;DHT22;6919;52.344;14.518;2022-11-20T00:23:59;-0.50;99.90
13694;DHT22;6919;52.344;14.518;2022-11-20T00:26:28;-0.40;99.90
13694;DHT22;6919;52.344;14.518;2022-11-20T00:28:58;-0.50;99.90
13694;DHT22;6919;52.344;14.518;2022-11-20T00:31:28;-0.50;99.90
13694;DHT22;6919;52.344;14.518;2022-11-20T00:33:56;-0.50;99.90
13694;DHT22;6919;52.344;14.518;2022-11-20T00:36:26;-0.40;99.90
13694;DHT22;6919;52.344;14.518;2022-11-20T00:38:58;-0.50;99.90
13694;DHT22;6919;52.344;14.518;2022-11-20T00:41:29;-0.50;99.90
13694;DHT22;6919;52.344;14.518;2022-11-20T00:43:57;-0.40;99.90
13694;DHT22;6919;52.344;14.518;2022-11-20T00:46:27;-0.40;99.90
13694;DHT22;6919;52.344;14.518;2022-11-20T00:48:55;-0.40;99.90
13694;DHT22;6919;52.344;14.518;2022-11-20T00:51:26;-0.50;99.90
13694;DHT22;6919;52.344;14.518;2022-11-20T00:53:57;-0.60;99.90
13694;DHT22;6919;52.344;14.518;2022-11-20T00:56:26;-0.60;99.90
13694;DHT22;6919;52.344;14.518;2022-11-20T00:58:54;-0.60;99.90
13694;DHT22;6919;52.344;14.518;2022-11-20T01:01:24;-0.50;99.90
13694;DHT22;6919;52.344;14.518;2022-11-20T01:03:57;-0.50;99.90
13694;DHT22;6919;52.344;14.518;2022-11-20T01:06:28;-0.30;99.90
13694;DHT22;6919;52.344;14.518;2022-11-20T01:09:00;-0.40;99.90
13694;DHT22;6919;52.344;14.518;2022-11-20T01:11:32;-0.50;99.90
13694;DHT22;6919;52.344;14.518;2022-11-20T01:14:03;-0.50;99.90
13694;DHT22;6919;52.344;14.518;2022-11-20T01:16:36;-0.50;99.90
13694;DHT22;6919;52.344;14.518;2022-11-20T01:19:09;-0.50;99.90
13694;DHT22;6919;52.344;14.518;2022-11-20T01:21:45;-0.50;99.90
13694;DHT22;6919;52.344;14.518;2022-11-20T01:24:17;-0.50;99.90
13694;DHT22;6919;52.344;14.518;2022-11-20T01:26:49;-0.50;99.90
13694;DHT22;6919;52.344;14.518;2022-11-20T01:29:20;-0.60;99.90
13694;DHT22;6919;52.344;14.518;2022-11-20T01:31:51;-0.50;99.90
13694;DHT22;6919;52.344;14.518;2022-11-20T01:34:21;-0.60;99.90
13694;DHT22;6919;52.344;14.518;2022-11-20T01:36:51;-0.50;99.90
13694;DHT22;6919;52.344;14.518;2022-11-20T01:39:23;-0.60;99.90
13694;DHT22;6919;52.344;14.518;2022-11-20T01:41:54;-0.50;99.90
13694;DHT22;6919;52.344;14.518;2022-11-20T01:44:50;-0.50;99.90
13694;DHT22;6919;52.344;14.518;2022-11-20T01:47:30;-0.60;99.90
13694;DHT22;6919;52.344;14.518;2022-11-20T01:50:05;-0.60;99.90
13694;DHT22;6919;52.344;14.518;2022-11-20T01:52:42;-0.50;99.90
13694;DHT22;6919;52.344;14.518;2022-11-20T01:55:21;-0.60;99.90
13694;DHT22;6919;52.344;14.518;2022-11-20T01:57:53;-0.60;99.90
13694;DHT22;6919;52.344;14.518;2022-11-20T02:00:22;-0.60;99.90
13694;DHT22;6919;52.344;14.518;2022-11-20T02:02:54;-0.60;99.90
13694;DHT22;6919;52.344;14.518;2022-11-20T02:05:30;-0.60;99.90
13694;DHT22;6919;52.344;14.518;2022-11-20T02:08:02;-0.60;99.90
13694;DHT22;6919;52.344;14.518;2022-11-20T02:10:33;-0.60;99.90
13694;DHT22;6919;52.344;14.518;2022-11-20T02:13:03;-0.60;99.90
13694;DHT22;6919;52.344;14.518;2022-11-20T02:15:50;-0.60;99.90
13694;DHT22;6919;52.344;14.518;2022-11-20T02:18:20;-0.60;99.90
13694;DHT22;6919;52.344;14.518;2022-11-20T02:20:52;-0.60;99.90
13694;DHT22;6919;52.344;14.518;2022-11-20T02:23:28;-0.70;99.90
13694;DHT22;6919;52.344;14.518;2022-11-20T02:26:05;-0.30;99.90
13694;DHT22;6919;52.344;14.518;2022-11-20T02:28:36;-0.40;99.90
13694;DHT22;6919;52.344;14.518;2022-11-20T02:31:05;-0.60;99.90
13694;DHT22;6919;52.344;14.518;2022-11-20T02:33:34;-0.60;99.90
13694;DHT22;6919;52.344;14.518;2022-11-20T02:36:03;-0.60;99.90
13694;DHT22;6919;52.344;14.518;2022-11-20T02:38:31;-0.50;99.90
13694;DHT22;6919;52.344;14.518;2022-11-20T02:41:01;-0.50;99.90
13694;DHT22;6919;52.344;14.518;2022-11-20T02:43:29;-0.50;99.90
13694;DHT22;6919;52.344;14.518;2022-11-20T02:45:57;-0.50;99.90
13694;DHT22;6919;52.344;14.518;2022-11-20T02:48:26;-0.50;99.90
13694;DHT22;6919;52.344;14.518;2022-11-20T02:50:59;-0.50;99.90
13694;DHT22;6919;52.344;14.518;2022-11-20T02:53:28;-0.60;99.90
13694;DHT22;6919;52.344;14.518;2022-11-20T02:55:56;-0.60;99.90
13694;DHT22;6919;52.344;14.518;2022-11-20T02:58:26;-0.60;99.90
13694;DHT22;6919;52.344;14.518;2022-11-20T03:00:54;-0.80;99.90
13694;DHT22;6919;52.344;14.518;2022-11-20T03:03:22;-0.80;99.90
13694;DHT22;6919;52.344;14.518;2022-11-20T03:05:50;-0.80;99.90
13694;DHT22;6919;52.344;14.518;2022-11-20T03:08:19;-0.70;99.90
13694;DHT22;6919;52.344;14.518;2022-11-20T03:10:47;-0.70;99.90
13694;DHT22;6919;52.344;14.518;2022-11-20T03:13:15;-0.80;99.90
13694;DHT22;6919;52.344;14.518;2022-11-20T03:15:44;-0.80;99.90
13694;DHT22;6919;52.344;14.518;2022-11-20T03:18:13;-0.90;99.90
13694;DHT22;6919;52.344;14.518;2022-11-20T03:20:41;-1.00;99.90
13694;DHT22;6919;52.344;14.518;2022-11-20T03:23:09;-1.00;99.90
13694;DHT22;6919;52.344;14.518;2022-11-20T03:25:38;-0.90;99.90
13694;DHT22;6919;52.344;14.518;2022-11-20T03:28:06;-0.80;99.90
13694;DHT22;6919;52.344;14.518;2022-11-20T03:30:35;-0.90;99.90
13694;DHT22;6919;52.344;14.518;2022-11-20T03:33:04;-0.90;99.90
13694;DHT22;6919;52.344;14.518;2022-11-20T03:35:32;-0.80;99.90
13694;DHT22;6919;52.344;14.518;2022-11-20T03:38:01;-0.80;99.90
13694;DHT22;6919;52.344;14.518;2022-11-20T03:40:29;-0.90;99.90
13694;DHT22;6919;52.344;14.518;2022-11-20T03:42:57;-0.90;99.90
13694;DHT22;6919;52.344;14.518;2022-11-20T03:45:25;-0.80;99.90
13694;DHT22;6919;52.344;14.518;2022-11-20T03:47:53;-0.80;99.90
13694;DHT22;6919;52.344;14.518;2022-11-20T03:50:23;-0.90;99.90
13694;DHT22;6919;52.344;14.518;2022-11-20T03:52:51;-0.90;99.90
13694;DHT22;6919;52.344;14.518;2022-11-20T03:55:20;-0.80;99.90
13694;DHT22;6919;52.344;14.518;2022-11-20T03:57:48;-1.00;99.90
13694;DHT22;6919;52.344;14.518;2022-11-20T04:00:16;-0.20;99.90
13694;DHT22;6919;52.344;14.518;2022-11-20T04:02:45;-0.90;99.90
13694;DHT22;6919;52.344;14.518;2022-11-20T04:05:13;-0.90;99.90
13694;DHT22;6919;52.344;14.518;2022-11-20T04:07:42;-0.80;99.90
13694;DHT22;6919;52.344;14.518;2022-11-20T04:10:11;-0.90;99.90
13694;DHT22;6919;52.344;14.518;2022-11-20T04:12:39;-1.00;99.90
13694;DHT22;6919;52.344;14.518;2022-11-20T04:15:08;-0.90;99.90
13694;DHT22;6919;52.344;14.518;2022-11-20T04:17:37;-0.90;99.90
13694;DHT22;6919;52.344;14.518;2022-11-20T04:20:06;-0.90;99.90
13694;DHT22;6919;52.344;14.518;2022-11-20T04:22:35;-1.00;99.90
13694;DHT22;6919;52.344;14.518;2022-11-20T04:25:05;-1.00;99.90
13694;DHT22;6919;52.344;14.518;2022-11-20T04:27:34;-1.00;99.90
13694;DHT22;6919;52.344;14.518;2022-11-20T04:30:02;-1.00;99.90
13694;DHT22;6919;52.344;14.518;2022-11-20T04:32:30;-1.10;99.90
13694;DHT22;6919;52.344;14.518;2022-11-20T04:34:59;-1.00;99.90
13694;DHT22;6919;52.344;14.518;2022-11-20T04:37:27;-1.00;99.90
13694;DHT22;6919;52.344;14.518;2022-11-20T04:39:55;-1.00;99.90
13694;DHT22;6919;52.344;14.518;2022-11-20T04:42:25;-1.00;99.90
13694;DHT22;6919;52.344;14.518;2022-11-20T04:44:56;-1.00;99.90
13694;DHT22;6919;52.344;14.518;2022-11-20T04:47:25;-1.00;99.90
13694;DHT22;6919;52.344;14.518;2022-11-20T04:49:53;-1.00;99.90
13694;DHT22;6919;52.344;14.518;2022-11-20T04:52:21;-1.00;99.90
13694;DHT22;6919;52.344;14.518;2022-11-20T04:54:50;-1.00;99.90
13694;DHT22;6919;52.344;14.518;2022-11-20T04:57:19;-0.90;99.90
13694;DHT22;6919;52.344;14.518;2022-11-20T04:59:49;-1.00;99.90
13694;DHT22;6919;52.344;14.518;2022-11-20T05:02:17;-1.10;99.90
13694;DHT22;6919;52.344;14.518;2022-11-20T05:04:45;-1.00;99.90
13694;DHT22;6919;52.344;14.518;2022-11-20T05:07:14;-1.00;99.90
13694;DHT22;6919;52.344;14.518;2022-11-20T05:09:42;-1.00;99.90
13694;DHT22;6919;52.344;14.518;2022-11-20T05:12:11;-1.00;99.90
13694;DHT22;6919;52.344;14.518;2022-11-20T05:14:39;-0.90;99.90
13694;DHT22;6919;52.344;14.518;2022-11-20T05:17:11;-0.50;99.90
13694;DHT22;6919;52.344;14.518;2022-11-20T05:19:39;-1.00;99.90
13694;DHT22;6919;52.344;14.518;2022-11-20T05:22:08;-1.10;99.90
13694;DHT22;6919;52.344;14.518;2022-11-20T05:24:36;-1.10;99.90
13694;DHT22;6919;52.344;14.518;2022-11-20T05:27:04;-1.60;99.90
13694;DHT22;6919;52.344;14.518;2022-11-20T05:29:32;-1.00;99.90
13694;DHT22;6919;52.344;14.518;2022-11-20T05:32:00;-0.80;99.90
13694;DHT22;6919;52.344;14.518;2022-11-20T05:34:30;-0.90;99.90
13694;DHT22;6919;52.344;14.518;2022-11-20T05:36:59;-0.90;99.90
13694;DHT22;6919;52.344;14.518;2022-11-20T05:39:27;-1.00;99.90
13694;DHT22;6919;52.344;14.518;2022-11-20T05:41:55;-0.90;99.90
13694;DHT22;6919;52.344;14.518;2022-11-20T05:44:37;-1.00;99.90
13694;DHT22;6919;52.344;14.518;2022-11-20T05:47:05;-1.00;99.90
13694;DHT22;6919;52.344;14.518;2022-11-20T05:49:35;-0.90;99.90
13694;DHT22;6919;52.344;14.518;2022-11-20T05:52:04;-1.00;99.90
13694;DHT22;6919;52.344;14.518;2022-11-20T05:54:32;-1.00;99.90
13694;DHT22;6919;52.344;14.518;2022-11-20T05:57:00;-1.10;99.90
13694;DHT22;6919;52.344;14.518;2022-11-20T05:59:29;-1.00;99.90
13694;DHT22;6919;52.344;14.518;2022-11-20T06:01:57;-1.00;99.90
13694;DHT22;6919;52.344;14.518;2022-11-20T06:04:25;-1.00;99.90
13694;DHT22;6919;52.344;14.518;2022-11-20T06:06:55;-0.90;99.40
13694;DHT22;6919;52.344;14.518;2022-11-20T06:09:23;-0.90;96.40
13694;DHT22;6919;52.344;14.518;2022-11-20T06:11:51;-0.80;94.00
13694;DHT22;6919;52.344;14.518;2022-11-20T06:14:19;-0.90;87.20
13694;DHT22;6919;52.344;14.518;2022-11-20T06:16:48;-0.90;81.50
13694;DHT22;6919;52.344;14.518;2022-11-20T06:19:16;-1.00;95.00
13694;DHT22;6919;52.344;14.518;2022-11-20T06:21:45;-0.90;99.40
13694;DHT22;6919;52.344;14.518;2022-11-20T06:24:17;-0.90;92.30
13694;DHT22;6919;52.344;14.518;2022-11-20T06:26:45;-1.10;99.50
13694;DHT22;6919;52.344;14.518;2022-11-20T06:29:14;-1.00;99.90
13694;DHT22;6919;52.344;14.518;2022-11-20T06:31:42;-1.00;99.90
13694;DHT22;6919;52.344;14.518;2022-11-20T06:34:11;-1.10;99.90
13694;DHT22;6919;52.344;14.518;2022-11-20T06:36:39;-1.00;99.90
13694;DHT22;6919;52.344;14.518;2022-11-20T06:39:08;-1.10;99.90
13694;DHT22;6919;52.344;14.518;2022-11-20T06:41:37;-0.90;99.90
13694;DHT22;6919;52.344;14.518;2022-11-20T06:44:05;-1.00;99.90
13694;DHT22;6919;52.344;14.518;2022-11-20T06:46:34;-1.10;99.90
13694;DHT22;6919;52.344;14.518;2022-11-20T06:49:02;-1.10;99.90
13694;DHT22;6919;52.344;14.518;2022-11-20T06:51:30;-1.10;99.90
13694;DHT22;6919;52.344;14.518;2022-11-20T06:54:00;-1.10;99.90
13694;DHT22;6919;52.344;14.518;2022-11-20T06:56:28;-1.10;99.90
13694;DHT22;6919;52.344;14.518;2022-11-20T06:58:57;-1.20;99.90
13694;DHT22;6919;52.344;14.518;2022-11-20T07:01:25;-1.20;99.90
13694;DHT22;6919;52.344;14.518;2022-11-20T07:03:54;-1.10;99.90
13694;DHT22;6919;52.344;14.518;2022-11-20T07:06:22;-1.10;99.90
13694;DHT22;6919;52.344;14.518;2022-11-20T07:08:50;-1.10;99.90
13694;DHT22;6919;52.344;14.518;2022-11-20T07:11:19;-1.20;95.10
13694;DHT22;6919;52.344;14.518;2022-11-20T07:13:47;-1.20;89.40
13694;DHT22;6919;52.344;14.518;2022-11-20T07:16:17;-1.20;87.00
13694;DHT22;6919;52.344;14.518;2022-11-20T07:18:46;-1.10;85.00
13694;DHT22;6919;52.344;14.518;2022-11-20T07:21:16;-1.20;95.20
13694;DHT22;6919;52.344;14.518;2022-11-20T07:23:46;-1.10;94.10
13694;DHT22;6919;52.344;14.518;2022-11-20T07:26:14;-1.10;93.20
13694;DHT22;6919;52.344;14.518;2022-11-20T07:28:44;-1.00;93.50
13694;DHT22;6919;52.344;14.518;2022-11-20T07:31:13;-1.00;54.20
13694;DHT22;6919;52.344;14.518;2022-11-20T07:33:46;-1.10;50.00
13694;DHT22;6919;52.344;14.518;2022-11-20T07:36:15;-1.20;46.00
13694;DHT22;6919;52.344;14.518;2022-11-20T07:38:44;-1.10;69.60
13694;DHT22;6919;52.344;14.518;2022-11-20T07:41:12;-1.20;53.00
13694;DHT22;6919;52.344;14.518;2022-11-20T07:43:40;-1.20;63.80
13694;DHT22;6919;52.344;14.518;2022-11-20T07:46:08;-1.20;61.70
13694;DHT22;6919;52.344;14.518;2022-11-20T07:48:37;-1.20;66.20
13694;DHT22;6919;52.344;14.518;2022-11-20T07:51:07;-1.30;62.60
13694;DHT22;6919;52.344;14.518;2022-11-20T07:53:35;-1.10;68.30
13694;DHT22;6919;52.344;14.518;2022-11-20T07:56:04;-1.20;61.60
13694;DHT22;6919;52.344;14.518;2022-11-20T07:58:33;-1.10;59.30
13694;DHT22;6919;52.344;14.518;2022-11-20T08:01:05;-1.10;45.40
13694;DHT22;6919;52.344;14.518;2022-11-20T08:03:35;-1.10;46.50
13694;DHT22;6919;52.344;14.518;2022-11-20T08:06:07;-1.20;47.70
13694;DHT22;6919;52.344;14.518;2022-11-20T08:08:36;-1.20;57.80
13694;DHT22;6919;52.344;14.518;2022-11-20T08:11:09;-1.20;52.20
13694;DHT22;6919;52.344;14.518;2022-11-20T08:13:55;-1.10;45.00
13694;DHT22;6919;52.344;14.518;2022-11-20T08:16:43;-1.10;33.70
13694;DHT22;6919;52.344;14.518;2022-11-20T08:19:15;-1.10;54.00
13694;DHT22;6919;52.344;14.518;2022-11-20T08:21:46;-1.10;39.70
13694;DHT22;6919;52.344;14.518;2022-11-20T08:24:14;-1.10;34.60
13694;DHT22;6919;52.344;14.518;2022-11-20T08:26:43;-1.10;33.70
13694;DHT22;6919;52.344;14.518;2022-11-20T08:29:12;-1.10;48.80
13694;DHT22;6919;52.344;14.518;2022-11-20T08:31:40;-1.20;55.10
13694;DHT22;6919;52.344;14.518;2022-11-20T08:34:08;-1.10;55.10
13694;DHT22;6919;52.344;14.518;2022-11-20T08:36:45;-1.10;55.00
13694;DHT22;6919;52.344;14.518;2022-11-20T08:39:14;-1.10;27.70
13694;DHT22;6919;52.344;14.518;2022-11-20T08:41:42;-1.20;12.60
13694;DHT22;6919;52.344;14.518;2022-11-20T08:44:10;-1.20;26.70
13694;DHT22;6919;52.344;14.518;2022-11-20T08:46:40;-1.20;26.50
13694;DHT22;6919;52.344;14.518;2022-11-20T08:49:11;-1.20;24.90
13694;DHT22;6919;52.344;14.518;2022-11-20T08:51:41;-1.10;29.00
13694;DHT22;6919;52.344;14.518;2022-11-20T08:54:11;-1.00;6.00
13694;DHT22;6919;52.344;14.518;2022-11-20T08:56:40;-1.10;13.50
13694;DHT22;6919;52.344;14.518;2022-11-20T08:59:08;-1.10;11.70
13694;DHT22;6919;52.344;14.518;2022-11-20T09:01:56;-1.00;2.90
13694;DHT22;6919;52.344;14.518;2022-11-20T09:04:25;-1.00;1.00
13694;DHT22;6919;52.344;14.518;2022-11-20T09:06:53;-1.00;1.00
13694;DHT22;6919;52.344;14.518;2022-11-20T09:09:23;-1.00;1.00
13694;DHT22;6919;52.344;14.518;2022-11-20T09:11:52;-1.30;1.00
13694;DHT22;6919;52.344;14.518;2022-11-20T09:14:20;-1.10;1.00
13694;DHT22;6919;52.344;14.518;2022-11-20T09:16:51;-1.10;1.00
13694;DHT22;6919;52.344;14.518;2022-11-20T09:19:19;-1.00;1.00
13694;DHT22;6919;52.344;14.518;2022-11-20T09:22:03;-0.90;1.00
13694;DHT22;6919;52.344;14.518;2022-11-20T09:24:33;-0.80;1.00
13694;DHT22;6919;52.344;14.518;2022-11-20T09:27:03;-0.70;1.00
13694;DHT22;6919;52.344;14.518;2022-11-20T09:29:32;-0.70;1.00
13694;DHT22;6919;52.344;14.518;2022-11-20T09:32:00;-0.80;1.00
13694;DHT22;6919;52.344;14.518;2022-11-20T09:34:28;-0.80;1.00
13694;DHT22;6919;52.344;14.518;2022-11-20T09:36:56;-0.70;1.00
13694;DHT22;6919;52.344;14.518;2022-11-20T09:39:30;-0.70;1.00
13694;DHT22;6919;52.344;14.518;2022-11-20T09:42:17;-0.70;1.00
13694;DHT22;6919;52.344;14.518;2022-11-20T09:45:13;-0.60;1.00
13694;DHT22;6919;52.344;14.518;2022-11-20T09:48:04;-0.60;1.00
13694;DHT22;6919;52.344;14.518;2022-11-20T09:50:49;-0.50;1.00
13694;DHT22;6919;52.344;14.518;2022-11-20T09:53:27;-0.70;1.00
13694;DHT22;6919;52.344;14.518;2022-11-20T09:56:03;-0.70;1.00
13694;DHT22;6919;52.344;14.518;2022-11-20T09:58:38;-0.70;1.00
13694;DHT22;6919;52.344;14.518;2022-11-20T10:01:11;-0.60;1.00
13694;DHT22;6919;52.344;14.518;2022-11-20T10:03:51;-0.60;1.00
13694;DHT22;6919;52.344;14.518;2022-11-20T10:06:29;-0.60;1.00
13694;DHT22;6919;52.344;14.518;2022-11-20T10:09:19;-0.60;1.00
13694;DHT22;6919;52.344;14.518;2022-11-20T10:12:03;-0.70;1.00
13694;DHT22;6919;52.344;14.518;2022-11-20T10:14:55;-0.60;1.00
13694;DHT22;6919;52.344;14.518;2022-11-20T10:17:55;-0.50;1.00
13694;DHT22;6919;52.344;14.518;2022-11-20T10:20:42;-0.50;1.00
13694;DHT22;6919;52.344;14.518;2022-11-20T10:23:28;-0.60;1.00
13694;DHT22;6919;52.344;14.518;2022-11-20T10:26:20;-0.40;1.00
13694;DHT22;6919;52.344;14.518;2022-11-20T10:29:05;-1.00;1.00
13694;DHT22;6919;52.344;14.518;2022-11-20T10:31:42;-0.50;1.00
13694;DHT22;6919;52.344;14.518;2022-11-20T10:34:19;-0.50;1.00
13694;DHT22;6919;52.344;14.518;2022-11-20T10:36:54;-0.50;1.00
13694;DHT22;6919;52.344;14.518;2022-11-20T10:39:32;-0.40;1.00
13694;DHT22;6919;52.344;14.518;2022-11-20T10:42:08;-0.40;1.00
13694;DHT22;6919;52.344;14.518;2022-11-20T10:44:47;-0.10;1.00
13694;DHT22;6919;52.344;14.518;2022-11-20T10:47:36;0.00;1.00
13694;DHT22;6919;52.344;14.518;2022-11-20T10:50:09;0.10;1.00
13694;DHT22;6919;52.344;14.518;2022-11-20T10:52:54;0.10;99.90
13694;DHT22;6919;52.344;14.518;2022-11-20T10:55:32;0.30;1.00
13694;DHT22;6919;52.344;14.518;2022-11-20T10:58:12;0.00;99.90
13694;DHT22;6919;52.344;14.518;2022-11-20T11:00:43;-0.10;99.90
13694;DHT22;6919;52.344;14.518;2022-11-20T11:03:22;0.00;1.00
13694;DHT22;6919;52.344;14.518;2022-11-20T11:05:57;-0.10;1.00
13694;DHT22;6919;52.344;14.518;2022-11-20T11:08:35;0.00;1.00
13694;DHT22;6919;52.344;14.518;2022-11-20T11:11:18;-0.20;1.00
13694;DHT22;6919;52.344;14.518;2022-11-20T11:13:49;-0.10;1.00
13694;DHT22;6919;52.344;14.518;2022-11-20T11:16:21;-0.10;1.00
13694;DHT22;6919;52.344;14.518;2022-11-20T11:19:03;0.00;99.90
13694;DHT22;6919;52.344;14.518;2022-11-20T11:21:33;0.00;1.00
13694;DHT22;6919;52.344;14.518;2022-11-20T11:24:03;-0.10;1.00
13694;DHT22;6919;52.344;14.518;2022-11-20T11:26:56;-0.10;99.90
13694;DHT22;6919;52.344;14.518;2022-11-20T11:29:26;-0.30;99.90
13694;DHT22;6919;52.344;14.518;2022-11-20T11:32:04;-0.40;99.90
13694;DHT22;6919;52.344;14.518;2022-11-20T11:34:35;-0.50;99.90
13694;DHT22;6919;52.344;14.518;2022-11-20T11:37:05;-0.30;1.00
13694;DHT22;6919;52.344;14.518;2022-11-20T11:39:42;-0.20;99.90
13694;DHT22;6919;52.344;14.518;2022-11-20T11:42:13;-0.20;99.90
13694;DHT22;6919;52.344;14.518;2022-11-20T11:44:47;-0.30;99.90
13694;DHT22;6919;52.344;14.518;2022-11-20T11:47:36;-0.20;99.90
13694;DHT22;6919;52.344;14.518;2022-11-20T11:50:18;-0.30;99.90
13694;DHT22;6919;52.344;14.518;2022-11-20T11:52:59;-0.20;99.90
13694;DHT22;6919;52.344;14.518;2022-11-20T11:55:38;-0.10;99.90
13694;DHT22;6919;52.344;14.518;2022-11-20T11:58:16;0.10;99.90
13694;DHT22;6919;52.344;14.518;2022-11-20T12:00:58;0.20;1.00
13694;DHT22;6919;52.344;14.518;2022-11-20T12:03:35;0.10;99.90
13694;DHT22;6919;52.344;14.518;2022-11-20T12:06:12;0.10;99.90
13694;DHT22;6919;52.344;14.518;2022-11-20T12:08:46;0.10;1.00
13694;DHT22;6919;52.344;14.518;2022-11-20T12:11:24;0.10;1.00
13694;DHT22;6919;52.344;14.518;2022-11-20T12:14:02;0.00;1.00
13694;DHT22;6919;52.344;14.518;2022-11-20T12:16:39;-0.10;99.90
13694;DHT22;6919;52.344;14.518;2022-11-20T12:19:10;-0.10;1.00
13694;DHT22;6919;52.344;14.518;2022-11-20T12:21:52;-0.10;99.90
13694;DHT22;6919;52.344;14.518;2022-11-20T12:24:42;0.00;99.90
13694;DHT22;6919;52.344;14.518;2022-11-20T12:28:04;0.10;1.00
13694;DHT22;6919;52.344;14.518;2022-11-20T12:31:09;0.30;1.00
13694;DHT22;6919;52.344;14.518;2022-11-20T12:34:19;0.50;1.00
13694;DHT22;6919;52.344;14.518;2022-11-20T12:37:08;0.60;99.90
13694;DHT22;6919;52.344;14.518;2022-11-20T12:39:55;0.40;99.90
13694;DHT22;6919;52.344;14.518;2022-11-20T12:42:42;0.30;99.90
13694;DHT22;6919;52.344;14.518;2022-11-20T12:45:54;0.30;1.00
13694;DHT22;6919;52.344;14.518;2022-11-20T12:55:16;0.40;1.00
13694;DHT22;6919;52.344;14.518;2022-11-20T12:58:02;0.30;1.00
13694;DHT22;6919;52.344;14.518;2022-11-20T13:00:42;0.50;99.90
13694;DHT22;6919;52.344;14.518;2022-11-20T13:03:38;0.30;1.00
13694;DHT22;6919;52.344;14.518;2022-11-20T13:06:15;0.40;1.00
13694;DHT22;6919;52.344;14.518;2022-11-20T13:08:50;0.20;1.00
13694;DHT22;6919;52.344;14.518;2022-11-20T13:11:27;0.30;99.90
13694;DHT22;6919;52.344;14.518;2022-11-20T13:14:21;0.30;99.90
13694;DHT22;6919;52.344;14.518;2022-11-20T13:17:04;0.30;1.00
13694;DHT22;6919;52.344;14.518;2022-11-20T13:19:39;0.40;99.90
13694;DHT22;6919;52.344;14.518;2022-11-20T13:22:08;0.40;1.00
13694;DHT22;6919;52.344;14.518;2022-11-20T13:24:38;0.40;99.90
13694;DHT22;6919;52.344;14.518;2022-11-20T13:27:19;0.50;99.90
13694;DHT22;6919;52.344;14.518;2022-11-20T13:30:02;0.50;99.90
13694;DHT22;6919;52.344;14.518;2022-11-20T13:32:54;0.80;1.00
13694;DHT22;6919;52.344;14.518;2022-11-20T13:35:28;0.80;1.00
13694;DHT22;6919;52.344;14.518;2022-11-20T13:38:04;0.90;1.00
13694;DHT22;6919;52.344;14.518;2022-11-20T13:40:37;1.00;99.90
13694;DHT22;6919;52.344;14.518;2022-11-20T13:43:21;1.10;90.00
13694;DHT22;6919;52.344;14.518;2022-11-20T13:45:56;1.00;99.90
13694;DHT22;6919;52.344;14.518;2022-11-20T13:48:29;0.90;99.90
13694;DHT22;6919;52.344;14.518;2022-11-20T13:51:23;0.90;99.90
13694;DHT22;6919;52.344;14.518;2022-11-20T13:54:22;1.10;99.90
13694;DHT22;6919;52.344;14.518;2022-11-20T14:00:12;0.90;1.00
13694;DHT22;6919;52.344;14.518;2022-11-20T14:02:44;1.00;1.00
13694;DHT22;6919;52.344;14.518;2022-11-20T14:05:22;1.10;99.90
13694;DHT22;6919;52.344;14.518;2022-11-20T14:07:53;1.00;99.90
13694;DHT22;6919;52.344;14.518;2022-11-20T14:10:24;1.10;99.90
13694;DHT22;6919;52.344;14.518;2022-11-20T14:13:10;1.20;99.90
13694;DHT22;6919;52.344;14.518;2022-11-20T14:15:40;1.30;1.00
13694;DHT22;6919;52.344;14.518;2022-11-20T14:18:13;1.50;99.90
13694;DHT22;6919;52.344;14.518;2022-11-20T14:20:43;1.50;1.00
13694;DHT22;6919;52.344;14.518;2022-11-20T14:23:11;1.20;64.80
13694;DHT22;6919;52.344;14.518;2022-11-20T14:25:42;1.30;1.00
13694;DHT22;6919;52.344;14.518;2022-11-20T14:28:24;1.20;1.00
13694;DHT22;6919;52.344;14.518;2022-11-20T14:30:55;1.20;1.00
13694;DHT22;6919;52.344;14.518;2022-11-20T14:33:26;1.20;99.90
13694;DHT22;6919;52.344;14.518;2022-11-20T14:35:56;1.10;1.00
13694;DHT22;6919;52.344;14.518;2022-11-20T14:38:28;1.00;1.00
13694;DHT22;6919;52.344;14.518;2022-11-20T14:41:06;0.90;1.00
13694;DHT22;6919;52.344;14.518;2022-11-20T14:43:36;0.80;51.20
13694;DHT22;6919;52.344;14.518;2022-11-20T14:46:07;0.70;99.90
13694;DHT22;6919;52.344;14.518;2022-11-20T14:48:40;0.60;99.90
13694;DHT22;6919;52.344;14.518;2022-11-20T14:51:26;0.50;1.00
13694;DHT22;6919;52.344;14.518;2022-11-20T14:54:08;0.40;1.00
13694;DHT22;6919;52.344;14.518;2022-11-20T14:56:38;0.40;1.00
13694;DHT22;6919;52.344;14.518;2022-11-20T14:59:09;0.40;99.90
13694;DHT22;6919;52.344;14.518;2022-11-20T15:01:37;0.20;99.90
13694;DHT22;6919;52.344;14.518;2022-11-20T15:04:07;0.10;1.00
13694;DHT22;6919;52.344;14.518;2022-11-20T15:06:48;0.00;99.90
13694;DHT22;6919;52.344;14.518;2022-11-20T15:09:18;0.10;1.00
13694;DHT22;6919;52.344;14.518;2022-11-20T15:11:54;-0.10;1.00
13694;DHT22;6919;52.344;14.518;2022-11-20T15:14:26;-0.20;99.90
13694;DHT22;6919;52.344;14.518;2022-11-20T15:16:56;-0.10;99.90
13694;DHT22;6919;52.344;14.518;2022-11-20T15:19:25;0.20;99.90
13694;DHT22;6919;52.344;14.518;2022-11-20T15:21:54;-0.10;99.90
13694;DHT22;6919;52.344;14.518;2022-11-20T15:24:22;-0.10;99.90
13694;DHT22;6919;52.344;14.518;2022-11-20T15:26:51;-0.10;99.90
13694;DHT22;6919;52.344;14.518;2022-11-20T15:29:20;-0.10;99.90
13694;DHT22;6919;52.344;14.518;2022-11-20T15:31:52;-0.10;99.90
13694;DHT22;6919;52.344;14.518;2022-11-20T15:34:21;0.00;99.90
13694;DHT22;6919;52.344;14.518;2022-11-20T15:36:50;-0.10;99.90
13694;DHT22;6919;52.344;14.518;2022-11-20T15:39:19;-0.20;99.90
13694;DHT22;6919;52.344;14.518;2022-11-20T15:41:47;-0.30;1.00
13694;DHT22;6919;52.344;14.518;2022-11-20T15:44:16;-0.20;1.00
13694;DHT22;6919;52.344;14.518;2022-11-20T15:46:44;-0.30;1.00
13694;DHT22;6919;52.344;14.518;2022-11-20T15:49:16;-0.20;1.00
13694;DHT22;6919;52.344;14.518;2022-11-20T15:51:48;-0.30;1.00
13694;DHT22;6919;52.344;14.518;2022-11-20T15:54:18;-0.20;1.00
13694;DHT22;6919;52.344;14.518;2022-11-20T15:56:49;-0.40;1.00
13694;DHT22;6919;52.344;14.518;2022-11-20T15:59:19;-0.40;1.00
13694;DHT22;6919;52.344;14.518;2022-11-20T16:01:48;-0.30;1.00
13694;DHT22;6919;52.344;14.518;2022-11-20T16:04:18;-0.20;1.00
13694;DHT22;6919;52.344;14.518;2022-11-20T16:06:46;-0.30;1.00
13694;DHT22;6919;52.344;14.518;2022-11-20T16:09:14;-0.20;1.00
13694;DHT22;6919;52.344;14.518;2022-11-20T16:11:43;-0.20;1.00
13694;DHT22;6919;52.344;14.518;2022-11-20T16:14:11;-0.20;1.00
13694;DHT22;6919;52.344;14.518;2022-11-20T16:16:57;-0.20;1.00
13694;DHT22;6919;52.344;14.518;2022-11-20T16:19:27;-0.10;1.00
13694;DHT22;6919;52.344;14.518;2022-11-20T16:21:56;-0.10;1.00
13694;DHT22;6919;52.344;14.518;2022-11-20T16:24:29;-0.10;1.00